sensor_id;sensor_type;location;lat;lon;timestamp;pressure;altitude;pressure_sealevel;temperature;humidity
64916;BME280;51427;-27.442;153.014;2024-03-06T00:00:07;101959.97;;;26.49;54.53
64916;BME280;51427;-27.442;153.014;2024-03-06T00:02:35;101958.34;;;26.48;55.78
64916;BME280;51427;-27.442;153.014;2024-03-06T00:05:03;101961.53;;;26.58;55.09
64916;BME280;51427;-27.442;153.014;2024-03-06T00:07:34;101956.09;;;26.83;55.55
64916;BME280;51427;-27.442;153.014;2024-03-06T00:10:02;101956.75;;;27.45;53.10
64916;BME280;51427;-27.442;153.014;2024-03-06T00:12:31;101954.50;;;26.94;53.46
64916;BME280;51427;-27.442;153.014;2024-03-06T00:14:58;101963.16;;;27.70;52.14
64916;BME280;51427;-27.442;153.014;2024-03-06T00:17:25;101951.94;;;26.89;52.50
64916;BME280;51427;-27.442;153.014;2024-03-06T00:19:53;101953.91;;;26.88;52.84
64916;BME280;51427;-27.442;153.014;2024-03-06T00:22:20;101956.53;;;27.05;53.71
64916;BME280;51427;-27.442;153.014;2024-03-06T00:24:47;101957.06;;;26.45;53.85
64916;BME280;51427;-27.442;153.014;2024-03-06T00:27:15;101953.78;;;26.85;53.80
64916;BME280;51427;-27.442;153.014;2024-03-06T00:29:42;101945.44;;;26.97;53.34
64916;BME280;51427;-27.442;153.014;2024-03-06T00:32:09;101942.91;;;27.61;51.18
64916;BME280;51427;-27.442;153.014;2024-03-06T00:34:37;101931.91;;;28.41;50.42
64916;BME280;51427;-27.442;153.014;2024-03-06T00:37:04;101947.25;;;29.02;50.31
64916;BME280;51427;-27.442;153.014;2024-03-06T00:39:31;101940.56;;;28.24;48.36
64916;BME280;51427;-27.442;153.014;2024-03-06T00:41:58;101939.22;;;28.45;47.40
64916;BME280;51427;-27.442;153.014;2024-03-06T00:44:26;101934.31;;;27.78;46.28
64916;BME280;51427;-27.442;153.014;2024-03-06T00:46:53;101950.25;;;27.65;48.61
64916;BME280;51427;-27.442;153.014;2024-03-06T00:49:20;101946.69;;;27.20;47.90
64916;BME280;51427;-27.442;153.014;2024-03-06T00:51:47;101931.84;;;27.89;48.70
64916;BME280;51427;-27.442;153.014;2024-03-06T00:54:15;101937.25;;;27.45;49.53
64916;BME280;51427;-27.442;153.014;2024-03-06T00:56:42;101928.13;;;27.97;49.56
64916;BME280;51427;-27.442;153.014;2024-03-06T00:59:09;101922.41;;;28.70;48.54
64916;BME280;51427;-27.442;153.014;2024-03-06T01:01:37;101920.94;;;29.03;46.42
64916;BME280;51427;-27.442;153.014;2024-03-06T01:04:04;101912.72;;;28.67;45.58
64916;BME280;51427;-27.442;153.014;2024-03-06T01:06:32;101920.06;;;28.32;46.24
64916;BME280;51427;-27.442;153.014;2024-03-06T01:08:59;101910.06;;;29.30;48.18
64916;BME280;51427;-27.442;153.014;2024-03-06T01:11:27;101910.59;;;28.48;45.56
64916;BME280;51427;-27.442;153.014;2024-03-06T01:13:54;101911.75;;;29.19;45.62
64916;BME280;51427;-27.442;153.014;2024-03-06T01:16:21;101901.22;;;28.84;44.95
64916;BME280;51427;-27.442;153.014;2024-03-06T01:18:49;101900.59;;;28.75;45.65
64916;BME280;51427;-27.442;153.014;2024-03-06T01:21:16;101892.25;;;28.91;44.83
64916;BME280;51427;-27.442;153.014;2024-03-06T01:23:44;101896.88;;;28.43;45.61
64916;BME280;51427;-27.442;153.014;2024-03-06T01:26:11;101891.72;;;29.16;45.27
64916;BME280;51427;-27.442;153.014;2024-03-06T01:28:38;101885.00;;;29.33;45.17
64916;BME280;51427;-27.442;153.014;2024-03-06T01:31:06;101873.41;;;29.50;46.38
64916;BME280;51427;-27.442;153.014;2024-03-06T01:33:33;101881.63;;;29.28;45.88
64916;BME280;51427;-27.442;153.014;2024-03-06T01:36:00;101889.66;;;28.42;48.40
64916;BME280;51427;-27.442;153.014;2024-03-06T01:38:27;101882.06;;;28.03;49.16
64916;BME280;51427;-27.442;153.014;2024-03-06T01:40:55;101877.34;;;28.31;48.43
64916;BME280;51427;-27.442;153.014;2024-03-06T01:43:23;101868.22;;;28.74;47.90
64916;BME280;51427;-27.442;153.014;2024-03-06T01:45:52;101862.47;;;29.61;45.19
64916;BME280;51427;-27.442;153.014;2024-03-06T01:48:25;101858.91;;;29.29;46.10
64916;BME280;51427;-27.442;153.014;2024-03-06T01:50:56;101856.69;;;28.91;45.26
64916;BME280;51427;-27.442;153.014;2024-03-06T01:53:24;101875.63;;;28.54;46.02
64916;BME280;51427;-27.442;153.014;2024-03-06T01:55:54;101853.59;;;27.97;46.27
64916;BME280;51427;-27.442;153.014;2024-03-06T01:58:21;101848.72;;;28.62;46.22
64916;BME280;51427;-27.442;153.014;2024-03-06T02:00:51;101840.72;;;29.23;44.64
64916;BME280;51427;-27.442;153.014;2024-03-06T02:03:19;101837.72;;;28.41;46.56
64916;BME280;51427;-27.442;153.014;2024-03-06T02:05:49;101826.69;;;29.04;45.57
64916;BME280;51427;-27.442;153.014;2024-03-06T02:08:16;101823.78;;;29.47;46.73
64916;BME280;51427;-27.442;153.014;2024-03-06T02:10:45;101824.56;;;29.48;46.04
64916;BME280;51427;-27.442;153.014;2024-03-06T02:13:13;101832.03;;;28.65;47.84
64916;BME280;51427;-27.442;153.014;2024-03-06T02:15:41;101824.22;;;29.02;48.05
64916;BME280;51427;-27.442;153.014;2024-03-06T02:18:09;101812.00;;;28.63;48.56
64916;BME280;51427;-27.442;153.014;2024-03-06T02:20:38;101802.03;;;28.62;45.85
64916;BME280;51427;-27.442;153.014;2024-03-06T02:23:06;101799.72;;;28.80;48.74
64916;BME280;51427;-27.442;153.014;2024-03-06T02:25:33;101801.16;;;28.46;48.77
64916;BME280;51427;-27.442;153.014;2024-03-06T02:28:01;101806.78;;;28.62;47.88
64916;BME280;51427;-27.442;153.014;2024-03-06T02:30:28;101808.66;;;29.01;47.50
64916;BME280;51427;-27.442;153.014;2024-03-06T02:33:02;101811.88;;;28.88;46.40
64916;BME280;51427;-27.442;153.014;2024-03-06T02:35:32;101802.44;;;28.21;47.61
64916;BME280;51427;-27.442;153.014;2024-03-06T02:38:00;101808.78;;;28.61;47.49
64916;BME280;51427;-27.442;153.014;2024-03-06T02:40:27;101801.38;;;27.98;51.70
64916;BME280;51427;-27.442;153.014;2024-03-06T02:42:55;101816.28;;;27.78;52.70
64916;BME280;51427;-27.442;153.014;2024-03-06T02:45:22;101808.44;;;27.31;53.74
64916;BME280;51427;-27.442;153.014;2024-03-06T02:47:50;101794.03;;;27.41;53.09
64916;BME280;51427;-27.442;153.014;2024-03-06T02:50:17;101801.53;;;28.45;50.80
64916;BME280;51427;-27.442;153.014;2024-03-06T02:52:45;101795.19;;;28.32;50.64
64916;BME280;51427;-27.442;153.014;2024-03-06T02:55:12;101790.88;;;28.78;50.03
64916;BME280;51427;-27.442;153.014;2024-03-06T02:57:39;101789.47;;;28.56;48.88
64916;BME280;51427;-27.442;153.014;2024-03-06T03:00:07;101783.75;;;28.96;47.52
64916;BME280;51427;-27.442;153.014;2024-03-06T03:02:39;101792.25;;;28.41;48.50
64916;BME280;51427;-27.442;153.014;2024-03-06T03:05:07;101775.81;;;28.67;48.79
64916;BME280;51427;-27.442;153.014;2024-03-06T03:07:35;101772.19;;;29.13;48.48
64916;BME280;51427;-27.442;153.014;2024-03-06T03:10:02;101778.44;;;28.76;50.04
64916;BME280;51427;-27.442;153.014;2024-03-06T03:12:31;101785.19;;;29.06;52.48
64916;BME280;51427;-27.442;153.014;2024-03-06T03:14:58;101770.47;;;28.18;53.90
64916;BME280;51427;-27.442;153.014;2024-03-06T03:17:25;101777.84;;;29.17;52.28
64916;BME280;51427;-27.442;153.014;2024-03-06T03:19:52;101770.78;;;29.54;52.13
64916;BME280;51427;-27.442;153.014;2024-03-06T03:22:19;101786.00;;;29.06;50.13
64916;BME280;51427;-27.442;153.014;2024-03-06T03:24:47;101763.44;;;28.99;49.50
64916;BME280;51427;-27.442;153.014;2024-03-06T03:27:14;101780.78;;;28.30;51.09
64916;BME280;51427;-27.442;153.014;2024-03-06T03:29:42;101765.84;;;28.10;51.62
64916;BME280;51427;-27.442;153.014;2024-03-06T03:32:09;101772.28;;;28.70;49.12
64916;BME280;51427;-27.442;153.014;2024-03-06T03:34:36;101758.22;;;29.48;48.20
64916;BME280;51427;-27.442;153.014;2024-03-06T03:37:04;101760.19;;;29.13;48.55
64916;BME280;51427;-27.442;153.014;2024-03-06T03:39:31;101770.06;;;28.32;48.09
64916;BME280;51427;-27.442;153.014;2024-03-06T03:41:58;101762.88;;;28.47;49.48
64916;BME280;51427;-27.442;153.014;2024-03-06T03:44:25;101776.84;;;28.47;48.85
64916;BME280;51427;-27.442;153.014;2024-03-06T03:46:53;101755.25;;;28.75;49.77
64916;BME280;51427;-27.442;153.014;2024-03-06T03:49:20;101751.94;;;27.98;50.07
64916;BME280;51427;-27.442;153.014;2024-03-06T03:51:47;101758.72;;;28.56;49.87
64916;BME280;51427;-27.442;153.014;2024-03-06T03:54:14;101747.16;;;28.27;49.76
64916;BME280;51427;-27.442;153.014;2024-03-06T03:56:42;101764.63;;;28.67;50.01
64916;BME280;51427;-27.442;153.014;2024-03-06T03:59:09;101749.06;;;28.38;51.59
64916;BME280;51427;-27.442;153.014;2024-03-06T04:01:36;101740.38;;;28.55;51.39
64916;BME280;51427;-27.442;153.014;2024-03-06T04:04:04;101732.50;;;28.30;52.47
64916;BME280;51427;-27.442;153.014;2024-03-06T04:06:31;101744.22;;;28.51;48.20
64916;BME280;51427;-27.442;153.014;2024-03-06T04:08:58;101734.72;;;28.24;49.97
64916;BME280;51427;-27.442;153.014;2024-03-06T04:11:25;101726.72;;;28.23;49.01
64916;BME280;51427;-27.442;153.014;2024-03-06T04:13:53;101724.22;;;28.33;50.47
64916;BME280;51427;-27.442;153.014;2024-03-06T04:16:20;101711.69;;;28.58;50.20
64916;BME280;51427;-27.442;153.014;2024-03-06T04:18:47;101724.13;;;28.30;51.03
64916;BME280;51427;-27.442;153.014;2024-03-06T04:21:14;101717.22;;;28.11;50.63
64916;BME280;51427;-27.442;153.014;2024-03-06T04:23:42;101701.47;;;28.35;49.75
64916;BME280;51427;-27.442;153.014;2024-03-06T04:26:10;101705.34;;;28.14;50.26
64916;BME280;51427;-27.442;153.014;2024-03-06T04:28:37;101698.16;;;28.29;49.92
64916;BME280;51427;-27.442;153.014;2024-03-06T04:31:05;101700.25;;;28.48;49.14
64916;BME280;51427;-27.442;153.014;2024-03-06T04:33:32;101690.50;;;28.57;48.49
64916;BME280;51427;-27.442;153.014;2024-03-06T04:36:04;101705.19;;;28.23;48.68
64916;BME280;51427;-27.442;153.014;2024-03-06T04:38:35;101690.97;;;28.44;49.56
64916;BME280;51427;-27.442;153.014;2024-03-06T04:41:02;101692.59;;;28.45;49.96
64916;BME280;51427;-27.442;153.014;2024-03-06T04:43:29;101701.84;;;28.49;50.67
64916;BME280;51427;-27.442;153.014;2024-03-06T04:45:56;101698.19;;;27.74;52.53
64916;BME280;51427;-27.442;153.014;2024-03-06T04:48:24;101702.13;;;27.33;52.97
64916;BME280;51427;-27.442;153.014;2024-03-06T04:50:52;101701.56;;;27.15;52.77
64916;BME280;51427;-27.442;153.014;2024-03-06T04:53:19;101691.09;;;27.76;51.01
64916;BME280;51427;-27.442;153.014;2024-03-06T04:55:49;101689.50;;;27.91;50.65
64916;BME280;51427;-27.442;153.014;2024-03-06T04:58:17;101688.91;;;28.41;49.49
64916;BME280;51427;-27.442;153.014;2024-03-06T05:00:44;101686.72;;;28.34;48.54
64916;BME280;51427;-27.442;153.014;2024-03-06T05:03:11;101703.88;;;28.05;49.83
64916;BME280;51427;-27.442;153.014;2024-03-06T05:05:38;101695.38;;;28.01;49.19
64916;BME280;51427;-27.442;153.014;2024-03-06T05:08:06;101685.91;;;28.06;49.82
64916;BME280;51427;-27.442;153.014;2024-03-06T05:10:37;101690.03;;;28.24;49.91
64916;BME280;51427;-27.442;153.014;2024-03-06T05:13:04;101684.72;;;28.35;50.12
64916;BME280;51427;-27.442;153.014;2024-03-06T05:15:31;101694.28;;;28.96;48.89
64916;BME280;51427;-27.442;153.014;2024-03-06T05:17:59;101698.53;;;28.43;49.31
64916;BME280;51427;-27.442;153.014;2024-03-06T05:20:27;101694.66;;;28.63;48.63
64916;BME280;51427;-27.442;153.014;2024-03-06T05:22:57;101700.25;;;28.48;48.42
64916;BME280;51427;-27.442;153.014;2024-03-06T05:25:24;101703.22;;;27.68;49.50
64916;BME280;51427;-27.442;153.014;2024-03-06T05:27:52;101704.56;;;27.74;49.02
64916;BME280;51427;-27.442;153.014;2024-03-06T05:30:19;101704.91;;;28.28;48.46
64916;BME280;51427;-27.442;153.014;2024-03-06T05:32:46;101704.94;;;28.44;48.40
64916;BME280;51427;-27.442;153.014;2024-03-06T05:35:13;101697.97;;;28.22;48.29
64916;BME280;51427;-27.442;153.014;2024-03-06T05:37:41;101704.84;;;28.40;48.16
64916;BME280;51427;-27.442;153.014;2024-03-06T05:40:09;101711.63;;;27.84;49.12
64916;BME280;51427;-27.442;153.014;2024-03-06T05:42:37;101712.56;;;27.48;50.07
64916;BME280;51427;-27.442;153.014;2024-03-06T05:45:04;101705.72;;;27.33;51.04
64916;BME280;51427;-27.442;153.014;2024-03-06T05:47:37;101709.81;;;27.76;50.47
64916;BME280;51427;-27.442;153.014;2024-03-06T05:50:07;101709.25;;;27.98;49.91
64916;BME280;51427;-27.442;153.014;2024-03-06T05:52:37;101703.00;;;27.61;50.46
64916;BME280;51427;-27.442;153.014;2024-03-06T05:55:05;101713.53;;;27.28;50.54
64916;BME280;51427;-27.442;153.014;2024-03-06T05:57:35;101718.03;;;27.44;50.62
64916;BME280;51427;-27.442;153.014;2024-03-06T06:00:03;101707.63;;;27.69;50.59
64916;BME280;51427;-27.442;153.014;2024-03-06T06:02:37;101706.66;;;27.77;49.21
64916;BME280;51427;-27.442;153.014;2024-03-06T06:05:05;101712.81;;;27.83;49.63
64916;BME280;51427;-27.442;153.014;2024-03-06T06:07:33;101712.44;;;27.44;48.76
64916;BME280;51427;-27.442;153.014;2024-03-06T06:10:00;101722.59;;;27.49;48.79
64916;BME280;51427;-27.442;153.014;2024-03-06T06:12:28;101728.38;;;27.32;49.64
64916;BME280;51427;-27.442;153.014;2024-03-06T06:14:55;101718.50;;;27.34;49.39
64916;BME280;51427;-27.442;153.014;2024-03-06T06:17:22;101719.41;;;27.50;49.10
64916;BME280;51427;-27.442;153.014;2024-03-06T06:19:49;101724.88;;;27.47;50.07
64916;BME280;51427;-27.442;153.014;2024-03-06T06:22:17;101732.56;;;27.50;50.19
64916;BME280;51427;-27.442;153.014;2024-03-06T06:24:44;101740.13;;;27.37;50.73
64916;BME280;51427;-27.442;153.014;2024-03-06T06:27:12;101734.38;;;27.70;50.74
64916;BME280;51427;-27.442;153.014;2024-03-06T06:29:39;101733.28;;;27.35;50.33
64916;BME280;51427;-27.442;153.014;2024-03-06T06:32:08;101739.66;;;27.47;49.84
64916;BME280;51427;-27.442;153.014;2024-03-06T06:34:35;101736.53;;;27.12;49.48
64916;BME280;51427;-27.442;153.014;2024-03-06T06:37:02;101731.16;;;27.32;49.58
64916;BME280;51427;-27.442;153.014;2024-03-06T06:39:29;101733.06;;;27.28;49.62
64916;BME280;51427;-27.442;153.014;2024-03-06T06:41:57;101727.25;;;27.08;50.12
64916;BME280;51427;-27.442;153.014;2024-03-06T06:44:24;101727.22;;;27.33;50.39
64916;BME280;51427;-27.442;153.014;2024-03-06T06:46:51;101734.66;;;27.41;50.72
64916;BME280;51427;-27.442;153.014;2024-03-06T06:49:18;101723.25;;;27.46;50.24
64916;BME280;51427;-27.442;153.014;2024-03-06T06:51:46;101731.31;;;27.11;49.38
64916;BME280;51427;-27.442;153.014;2024-03-06T06:54:15;101737.84;;;27.03;49.31
64916;BME280;51427;-27.442;153.014;2024-03-06T06:56:43;101736.44;;;26.97;49.11
64916;BME280;51427;-27.442;153.014;2024-03-06T06:59:10;101735.63;;;26.96;49.84
64916;BME280;51427;-27.442;153.014;2024-03-06T07:01:39;101736.53;;;27.12;50.01
64916;BME280;51427;-27.442;153.014;2024-03-06T07:04:09;101728.28;;;27.04;48.72
64916;BME280;51427;-27.442;153.014;2024-03-06T07:06:37;101726.69;;;27.03;49.88
64916;BME280;51427;-27.442;153.014;2024-03-06T07:09:04;101734.22;;;26.90;50.14
64916;BME280;51427;-27.442;153.014;2024-03-06T07:11:31;101736.91;;;26.99;51.07
64916;BME280;51427;-27.442;153.014;2024-03-06T07:13:58;101741.44;;;26.91;51.40
64916;BME280;51427;-27.442;153.014;2024-03-06T07:16:26;101744.44;;;26.86;51.35
64916;BME280;51427;-27.442;153.014;2024-03-06T07:18:53;101746.84;;;26.76;51.19
64916;BME280;51427;-27.442;153.014;2024-03-06T07:21:20;101751.25;;;26.64;51.67
64916;BME280;51427;-27.442;153.014;2024-03-06T07:23:47;101755.41;;;26.58;51.87
64916;BME280;51427;-27.442;153.014;2024-03-06T07:26:15;101749.16;;;26.61;51.63
64916;BME280;51427;-27.442;153.014;2024-03-06T07:28:42;101758.00;;;26.63;51.73
64916;BME280;51427;-27.442;153.014;2024-03-06T07:31:09;101761.56;;;26.52;50.88
64916;BME280;51427;-27.442;153.014;2024-03-06T07:33:36;101765.53;;;26.63;51.25
64916;BME280;51427;-27.442;153.014;2024-03-06T07:36:05;101770.63;;;26.61;50.90
64916;BME280;51427;-27.442;153.014;2024-03-06T07:38:32;101768.03;;;26.44;51.20
64916;BME280;51427;-27.442;153.014;2024-03-06T07:40:59;101779.03;;;26.40;51.31
64916;BME280;51427;-27.442;153.014;2024-03-06T07:43:26;101778.09;;;26.36;50.94
64916;BME280;51427;-27.442;153.014;2024-03-06T07:45:54;101787.69;;;26.27;52.29
64916;BME280;51427;-27.442;153.014;2024-03-06T07:48:22;101796.94;;;26.18;52.32
64916;BME280;51427;-27.442;153.014;2024-03-06T07:50:49;101790.59;;;26.18;52.72
64916;BME280;51427;-27.442;153.014;2024-03-06T07:53:17;101792.59;;;26.09;53.52
64916;BME280;51427;-27.442;153.014;2024-03-06T07:55:45;101793.22;;;26.14;53.10
64916;BME280;51427;-27.442;153.014;2024-03-06T07:58:12;101798.97;;;26.09;54.00
64916;BME280;51427;-27.442;153.014;2024-03-06T08:00:39;101797.44;;;26.00;54.00
64916;BME280;51427;-27.442;153.014;2024-03-06T08:03:06;101796.00;;;25.94;52.81
64916;BME280;51427;-27.442;153.014;2024-03-06T08:05:34;101805.50;;;25.93;53.07
64916;BME280;51427;-27.442;153.014;2024-03-06T08:08:01;101805.91;;;25.83;53.95
64916;BME280;51427;-27.442;153.014;2024-03-06T08:10:29;101804.97;;;25.79;54.37
64916;BME280;51427;-27.442;153.014;2024-03-06T08:12:57;101806.16;;;25.69;55.02
64916;BME280;51427;-27.442;153.014;2024-03-06T08:15:24;101797.22;;;25.63;55.45
64916;BME280;51427;-27.442;153.014;2024-03-06T08:17:52;101808.88;;;25.57;56.26
64916;BME280;51427;-27.442;153.014;2024-03-06T08:20:19;101803.69;;;25.47;57.12
64916;BME280;51427;-27.442;153.014;2024-03-06T08:22:46;101812.03;;;25.47;57.46
64916;BME280;51427;-27.442;153.014;2024-03-06T08:25:14;101803.41;;;25.40;57.90
64916;BME280;51427;-27.442;153.014;2024-03-06T08:27:42;101803.78;;;25.30;58.48
64916;BME280;51427;-27.442;153.014;2024-03-06T08:30:09;101808.16;;;25.39;58.41
64916;BME280;51427;-27.442;153.014;2024-03-06T08:32:37;101814.75;;;25.26;59.16
64916;BME280;51427;-27.442;153.014;2024-03-06T08:35:12;101805.78;;;25.20;59.50
64916;BME280;51427;-27.442;153.014;2024-03-06T08:37:42;101808.09;;;25.18;59.84
64916;BME280;51427;-27.442;153.014;2024-03-06T08:40:10;101807.56;;;25.25;59.60
64916;BME280;51427;-27.442;153.014;2024-03-06T08:42:44;101801.59;;;25.14;60.43
64916;BME280;51427;-27.442;153.014;2024-03-06T08:45:13;101808.81;;;25.07;60.43
64916;BME280;51427;-27.442;153.014;2024-03-06T08:47:45;101807.16;;;25.06;61.09
64916;BME280;51427;-27.442;153.014;2024-03-06T08:50:12;101808.66;;;25.03;60.72
64916;BME280;51427;-27.442;153.014;2024-03-06T08:52:40;101808.50;;;25.00;61.57
64916;BME280;51427;-27.442;153.014;2024-03-06T08:55:08;101811.00;;;24.93;61.56
64916;BME280;51427;-27.442;153.014;2024-03-06T08:57:36;101811.00;;;24.93;61.27
64916;BME280;51427;-27.442;153.014;2024-03-06T09:00:05;101810.31;;;24.96;62.15
64916;BME280;51427;-27.442;153.014;2024-03-06T09:02:38;101813.94;;;24.88;62.49
64916;BME280;51427;-27.442;153.014;2024-03-06T09:05:10;101820.31;;;24.88;62.17
64916;BME280;51427;-27.442;153.014;2024-03-06T09:07:39;101831.44;;;24.88;62.42
64916;BME280;51427;-27.442;153.014;2024-03-06T09:10:13;101822.28;;;24.88;62.11
64916;BME280;51427;-27.442;153.014;2024-03-06T09:12:40;101824.56;;;24.86;62.49
64916;BME280;51427;-27.442;153.014;2024-03-06T09:15:08;101822.44;;;24.83;63.06
64916;BME280;51427;-27.442;153.014;2024-03-06T09:17:36;101821.47;;;24.78;62.87
64916;BME280;51427;-27.442;153.014;2024-03-06T09:20:04;101825.38;;;24.77;63.49
64916;BME280;51427;-27.442;153.014;2024-03-06T09:22:39;101825.06;;;24.70;63.67
64916;BME280;51427;-27.442;153.014;2024-03-06T09:25:06;101841.44;;;24.63;63.83
64916;BME280;51427;-27.442;153.014;2024-03-06T09:27:34;101840.28;;;24.64;64.20
64916;BME280;51427;-27.442;153.014;2024-03-06T09:30:02;101844.22;;;24.63;64.30
64916;BME280;51427;-27.442;153.014;2024-03-06T09:32:32;101842.91;;;24.61;64.33
64916;BME280;51427;-27.442;153.014;2024-03-06T09:34:59;101841.94;;;24.65;64.63
64916;BME280;51427;-27.442;153.014;2024-03-06T09:37:27;101844.56;;;24.53;64.49
64916;BME280;51427;-27.442;153.014;2024-03-06T09:39:54;101848.13;;;24.62;64.50
64916;BME280;51427;-27.442;153.014;2024-03-06T09:42:22;101845.84;;;24.56;64.65
64916;BME280;51427;-27.442;153.014;2024-03-06T09:44:50;101839.81;;;24.54;65.00
64916;BME280;51427;-27.442;153.014;2024-03-06T09:47:21;101851.09;;;24.57;64.76
64916;BME280;51427;-27.442;153.014;2024-03-06T09:49:53;101858.44;;;24.45;65.49
64916;BME280;51427;-27.442;153.014;2024-03-06T09:52:20;101859.09;;;24.50;65.35
64916;BME280;51427;-27.442;153.014;2024-03-06T09:54:48;101862.16;;;24.74;64.59
64916;BME280;51427;-27.442;153.014;2024-03-06T09:57:18;101862.38;;;24.44;65.73
64916;BME280;51427;-27.442;153.014;2024-03-06T09:59:45;101864.69;;;24.33;66.04
64916;BME280;51427;-27.442;153.014;2024-03-06T10:04:52;101865.81;;;24.41;66.20
64916;BME280;51427;-27.442;153.014;2024-03-06T10:07:20;101863.50;;;24.34;66.51
64916;BME280;51427;-27.442;153.014;2024-03-06T10:09:48;101872.31;;;24.53;65.93
64916;BME280;51427;-27.442;153.014;2024-03-06T10:12:18;101872.81;;;24.38;66.96
64916;BME280;51427;-27.442;153.014;2024-03-06T10:14:52;101882.16;;;24.34;67.44
64916;BME280;51427;-27.442;153.014;2024-03-06T10:17:21;101878.03;;;24.31;67.72
64916;BME280;51427;-27.442;153.014;2024-03-06T10:19:53;101883.44;;;24.36;68.07
64916;BME280;51427;-27.442;153.014;2024-03-06T10:22:20;101891.09;;;24.39;67.63
64916;BME280;51427;-27.442;153.014;2024-03-06T10:24:50;101894.22;;;24.29;68.02
64916;BME280;51427;-27.442;153.014;2024-03-06T10:27:31;101900.75;;;24.24;68.96
64916;BME280;51427;-27.442;153.014;2024-03-06T10:30:03;101902.38;;;24.34;68.42
64916;BME280;51427;-27.442;153.014;2024-03-06T10:32:31;101906.44;;;24.45;68.13
64916;BME280;51427;-27.442;153.014;2024-03-06T10:34:58;101910.88;;;24.29;68.40
64916;BME280;51427;-27.442;153.014;2024-03-06T10:37:25;101912.34;;;24.35;68.39
64916;BME280;51427;-27.442;153.014;2024-03-06T10:39:53;101919.19;;;24.20;69.23
64916;BME280;51427;-27.442;153.014;2024-03-06T10:42:24;101916.69;;;24.10;69.52
64916;BME280;51427;-27.442;153.014;2024-03-06T10:44:56;101921.47;;;24.18;69.38
64916;BME280;51427;-27.442;153.014;2024-03-06T10:47:28;101922.13;;;24.33;69.49
64916;BME280;51427;-27.442;153.014;2024-03-06T10:49:55;101926.03;;;24.14;70.39
64916;BME280;51427;-27.442;153.014;2024-03-06T10:52:27;101921.94;;;24.12;70.08
64916;BME280;51427;-27.442;153.014;2024-03-06T10:54:59;101924.19;;;24.10;70.52
64916;BME280;51427;-27.442;153.014;2024-03-06T10:57:27;101915.75;;;24.15;70.24
64916;BME280;51427;-27.442;153.014;2024-03-06T10:59:57;101917.34;;;24.07;70.43
64916;BME280;51427;-27.442;153.014;2024-03-06T11:02:28;101924.38;;;24.05;70.76
64916;BME280;51427;-27.442;153.014;2024-03-06T11:04:56;101926.03;;;24.14;70.74
64916;BME280;51427;-27.442;153.014;2024-03-06T11:07:23;101931.91;;;24.21;70.52
64916;BME280;51427;-27.442;153.014;2024-03-06T11:09:51;101924.25;;;24.18;70.63
64916;BME280;51427;-27.442;153.014;2024-03-06T11:12:35;101923.06;;;24.11;71.04
64916;BME280;51427;-27.442;153.014;2024-03-06T11:15:14;101931.91;;;24.13;70.81
64916;BME280;51427;-27.442;153.014;2024-03-06T11:17:43;101938.25;;;24.05;71.41
64916;BME280;51427;-27.442;153.014;2024-03-06T11:20:33;101939.41;;;24.12;71.24
64916;BME280;51427;-27.442;153.014;2024-03-06T11:23:02;101929.75;;;24.10;71.03
64916;BME280;51427;-27.442;153.014;2024-03-06T11:28:22;101934.16;;;24.11;71.25
64916;BME280;51427;-27.442;153.014;2024-03-06T11:31:09;101932.56;;;24.18;70.97
64916;BME280;51427;-27.442;153.014;2024-03-06T11:33:46;101935.28;;;24.10;71.62
64916;BME280;51427;-27.442;153.014;2024-03-06T11:36:27;101933.66;;;24.00;72.80
64916;BME280;51427;-27.442;153.014;2024-03-06T11:39:00;101937.91;;;24.06;73.10
64916;BME280;51427;-27.442;153.014;2024-03-06T11:44:22;101934.75;;;23.82;73.83
64916;BME280;51427;-27.442;153.014;2024-03-06T11:47:01;101932.19;;;23.94;73.11
64916;BME280;51427;-27.442;153.014;2024-03-06T11:49:33;101934.47;;;24.01;73.20
64916;BME280;51427;-27.442;153.014;2024-03-06T11:52:01;101935.78;;;23.95;73.06
64916;BME280;51427;-27.442;153.014;2024-03-06T11:54:55;101931.19;;;23.90;73.56
64916;BME280;51427;-27.442;153.014;2024-03-06T11:57:22;101926.81;;;23.98;72.76
64916;BME280;51427;-27.442;153.014;2024-03-06T11:59:49;101925.00;;;23.93;72.60
64916;BME280;51427;-27.442;153.014;2024-03-06T12:02:19;101912.44;;;23.96;73.39
64916;BME280;51427;-27.442;153.014;2024-03-06T12:04:47;101914.38;;;23.95;73.41
64916;BME280;51427;-27.442;153.014;2024-03-06T12:07:14;101909.97;;;23.86;73.79
64916;BME280;51427;-27.442;153.014;2024-03-06T12:09:42;101908.84;;;23.87;74.13
64916;BME280;51427;-27.442;153.014;2024-03-06T12:12:09;101909.97;;;23.86;74.61
64916;BME280;51427;-27.442;153.014;2024-03-06T12:14:37;101915.41;;;23.51;75.79
64916;BME280;51427;-27.442;153.014;2024-03-06T12:17:12;101914.19;;;23.74;74.07
64916;BME280;51427;-27.442;153.014;2024-03-06T12:19:42;101927.06;;;23.79;74.20
64916;BME280;51427;-27.442;153.014;2024-03-06T12:22:13;101924.28;;;23.70;74.09
64916;BME280;51427;-27.442;153.014;2024-03-06T12:24:45;101915.78;;;23.67;74.53
64916;BME280;51427;-27.442;153.014;2024-03-06T12:27:12;101915.25;;;23.56;75.52
64916;BME280;51427;-27.442;153.014;2024-03-06T12:29:40;101907.00;;;23.34;76.02
64916;BME280;51427;-27.442;153.014;2024-03-06T12:32:16;101899.56;;;23.43;76.48
64916;BME280;51427;-27.442;153.014;2024-03-06T12:34:44;101900.56;;;23.47;76.96